Shoshone, California Weather observations

Data are for observation ending at time listed.
 Day   Time    Ave.   Ave.  Ave.  Vector   Max.   Stn.    Total    Solar   Ave.  
  of    of     Air    Rel.  Wind   Wind    Wind   Baro.  Precip.   Rad.    Soil  
Year   Day     Temp.  Hum.  Speed  Dir.    Gust   Pres.                    Temp. 
2020   (PST)    F      %     mph   deg.    mph     mb.     in.     W/m2     F   
------------------------------------------------------------------------------
 267   21:00   76.3    22    0.8   360      3.1    966     0.00       0    94.7
 267   22:00   74.2    22    0.5    62      3.4    966     0.00       0    92.9
 267   23:00   72.2    22    1.8     1      3.9    966     0.00       0    91.2
 268    0:00   67.3    27    0.6   337      3.1    966     0.00       0    89.7
 268    1:00   66.5    27    0.6    61      2.5    966     0.00       0    88.3
 268    2:00   63.9    30    0.8    32      2.9    966     0.00       0    87.0
 268    3:00   61.5    32    1.3   333      5.7    966     0.00       0    85.7
 268    4:00   59.6    33    0.9    33      2.8    966     0.00       0    84.5
 268    5:00   59.8    33    1.0    56      3.4    966     0.00       1    83.4
 268    6:00   57.6    37    0.9     4      2.6    966     0.00      10    82.3
 268    7:00   63.0    31    0.4    77      2.0    967     0.00     115    81.4
 268    8:00   72.4    22    1.1   314      3.5    968     0.00     314    81.1
 268    9:00   79.7    17    2.4   269      4.8    968     0.00     522    82.5
 268   10:00   86.8    14    1.2   155      4.1    968     0.00     673    85.6
 268   11:00   92.3    12    1.8   160      7.2    967     0.00     780    89.5
 268   12:00   96.3    11    2.3   162      7.6    966     0.00     804    93.5
 268   13:00   99.7    10    2.4   160      8.4    965     0.00     778    97.2
 268   14:00  101.5    10    3.7   174     13.7    964     0.00     696    99.9
 268   15:00  101.9     9    4.3   182     12.1    963     0.00     551    101.6
 268   16:00  102.1     9    3.3   164     21.2    962     0.00     362    101.9
 268   17:00   99.3    10    2.9   173     10.3    962     0.00     157    100.8
 268   18:00   94.0    11    0.6   156      7.8    961     0.00      19    99.2
 268   19:00   89.3    12    1.0   130      6.1    962     0.00       0    97.5
 268   20:00   84.6    13    0.6    90      2.3    962     0.00       0    95.6

Return to Shoshone, California graphs page.


Western Regional Climate Center,wrcc@dri.edu